CFH24 YCOM-YWLM
Flight info
| Callsign | CFH24 |
|---|---|
| Flight time | 1h 7m |
| Altitude | 27000 |
| Route | NWA DCT TESAT DCT EKIPU |
| Aircraft | BE20/L-SBGRY/S |
Departure
| Time | 2026-04-29 06:18 |
|---|---|
| Airport | Cooma Snowy Mountains Airport (YCOM) |
Arrival
| Time | 2026-04-29 07:25 |
|---|---|
| Airport | Newcastle Airport (YWLM) |
| Time | Latitude | Longitude | Altitude | Speed | Heading |
|---|---|---|---|---|---|
| 2026-04-29 06:10 | -36.29195 | 148.97191 | 3054 ft | 0 kts | 157° |
| 2026-04-29 06:15 | -36.29199 | 148.97193 | 3054 ft | 2 kts | 156° |
| 2026-04-29 06:15 | -36.29210 | 148.97199 | 3052 ft | 1 kts | 156° |
| 2026-04-29 06:15 | -36.29231 | 148.97205 | 3053 ft | 5 kts | 182° |
| 2026-04-29 06:15 | -36.29269 | 148.97191 | 3053 ft | 6 kts | 196° |
| 2026-04-29 06:16 | -36.29305 | 148.97180 | 3052 ft | 6 kts | 186° |
| 2026-04-29 06:16 | -36.29338 | 148.97204 | 3052 ft | 8 kts | 112° |
| 2026-04-29 06:16 | -36.29348 | 148.97257 | 3050 ft | 8 kts | 102° |
| 2026-04-29 06:16 | -36.29359 | 148.97322 | 3049 ft | 9 kts | 102° |
| 2026-04-29 06:17 | -36.29371 | 148.97388 | 3050 ft | 4 kts | 103° |
| 2026-04-29 06:17 | -36.29382 | 148.97418 | 3051 ft | 4 kts | 159° |
| 2026-04-29 06:17 | -36.29424 | 148.97413 | 3050 ft | 10 kts | 193° |
| 2026-04-29 06:17 | -36.29731 | 148.97328 | 3055 ft | 89 kts | 192° |
| 2026-04-29 06:18 | -36.30532 | 148.97107 | 3123 ft | 140 kts | 193° |
| 2026-04-29 06:18 | -36.31569 | 148.96806 | 3513 ft | 163 kts | 194° |
| 2026-04-29 06:18 | -36.32734 | 148.96466 | 3949 ft | 180 kts | 194° |
| 2026-04-29 06:18 | -36.33823 | 148.96129 | 4665 ft | 168 kts | 189° |
| 2026-04-29 06:19 | -36.34943 | 148.96466 | 5176 ft | 173 kts | 141° |
| 2026-04-29 06:19 | -36.35492 | 148.97763 | 5704 ft | 176 kts | 94° |
| 2026-04-29 06:19 | -36.35128 | 148.99189 | 6232 ft | 179 kts | 49° |
| 2026-04-29 06:19 | -36.34121 | 149.00092 | 6742 ft | 181 kts | 26° |
| 2026-04-29 06:20 | -36.32913 | 149.00513 | 7263 ft | 182 kts | 9° |
| 2026-04-29 06:20 | -36.31656 | 149.00736 | 7786 ft | 183 kts | 6° |
| 2026-04-29 06:20 | -36.30386 | 149.00920 | 8305 ft | 185 kts | 6° |
| 2026-04-29 06:20 | -36.29105 | 149.01101 | 8816 ft | 186 kts | 6° |
| 2026-04-29 06:21 | -36.27914 | 149.01667 | 9324 ft | 187 kts | 43° |
| 2026-04-29 06:21 | -36.27120 | 149.02950 | 9805 ft | 190 kts | 52° |
| 2026-04-29 06:21 | -36.26219 | 149.04148 | 10302 ft | 191 kts | 43° |
| 2026-04-29 06:21 | -36.25242 | 149.05270 | 10796 ft | 192 kts | 43° |
| 2026-04-29 06:22 | -36.24258 | 149.06403 | 11286 ft | 194 kts | 43° |
| 2026-04-29 06:22 | -36.23271 | 149.07550 | 11772 ft | 195 kts | 43° |
| 2026-04-29 06:22 | -36.22277 | 149.08705 | 12245 ft | 197 kts | 43° |
| 2026-04-29 06:22 | -36.21275 | 149.09869 | 12724 ft | 198 kts | 43° |
| 2026-04-29 06:23 | -36.20265 | 149.11041 | 13193 ft | 200 kts | 43° |
| 2026-04-29 06:23 | -36.19247 | 149.12220 | 13658 ft | 201 kts | 43° |
| 2026-04-29 06:23 | -36.18223 | 149.13408 | 14118 ft | 203 kts | 43° |
| 2026-04-29 06:23 | -36.17189 | 149.14605 | 14573 ft | 204 kts | 43° |
| 2026-04-29 06:24 | -36.16150 | 149.15811 | 15018 ft | 206 kts | 43° |
| 2026-04-29 06:24 | -36.15101 | 149.17024 | 15452 ft | 207 kts | 43° |
| 2026-04-29 06:24 | -36.14046 | 149.18245 | 15875 ft | 208 kts | 43° |
| 2026-04-29 06:24 | -36.12983 | 149.19476 | 16290 ft | 210 kts | 43° |
| 2026-04-29 06:25 | -36.11913 | 149.20713 | 16696 ft | 211 kts | 43° |
| 2026-04-29 06:25 | -36.10836 | 149.21958 | 17095 ft | 213 kts | 43° |
| 2026-04-29 06:25 | -36.09752 | 149.23211 | 17482 ft | 214 kts | 43° |
| 2026-04-29 06:25 | -36.08661 | 149.24472 | 17859 ft | 215 kts | 43° |
| 2026-04-29 06:26 | -36.07562 | 149.25740 | 18228 ft | 217 kts | 43° |
| 2026-04-29 06:26 | -36.06457 | 149.27016 | 18589 ft | 218 kts | 43° |
| 2026-04-29 06:26 | -36.05346 | 149.28298 | 18941 ft | 219 kts | 43° |
| 2026-04-29 06:26 | -36.04227 | 149.29588 | 19284 ft | 221 kts | 43° |
| 2026-04-29 06:27 | -36.03102 | 149.30885 | 19621 ft | 222 kts | 43° |
| 2026-04-29 06:27 | -36.01972 | 149.32188 | 19945 ft | 223 kts | 43° |
| 2026-04-29 06:27 | -36.00835 | 149.33498 | 20266 ft | 224 kts | 43° |
| 2026-04-29 06:27 | -35.99691 | 149.34815 | 20583 ft | 225 kts | 43° |
| 2026-04-29 06:28 | -35.98542 | 149.36137 | 20881 ft | 226 kts | 43° |
| 2026-04-29 06:28 | -35.97387 | 149.37465 | 21161 ft | 228 kts | 43° |
| 2026-04-29 06:28 | -35.96226 | 149.38802 | 21460 ft | 229 kts | 43° |
| 2026-04-29 06:28 | -35.95454 | 149.39689 | 21645 ft | 229 kts | 43° |
| 2026-04-29 06:29 | -35.94282 | 149.41034 | 21918 ft | 230 kts | 43° |
| 2026-04-29 06:29 | -35.93108 | 149.42385 | 22185 ft | 232 kts | 43° |
| 2026-04-29 06:29 | -35.91525 | 149.44201 | 22529 ft | 233 kts | 43° |
| 2026-04-29 06:29 | -35.90739 | 149.45104 | 22696 ft | 234 kts | 43° |
| 2026-04-29 06:30 | -35.89548 | 149.46470 | 22941 ft | 234 kts | 43° |
| 2026-04-29 06:30 | -35.86721 | 149.49712 | 23326 ft | 243 kts | 43° |
| 2026-04-29 06:30 | -35.85879 | 149.50677 | 23429 ft | 245 kts | 43° |
| 2026-04-29 06:31 | -35.84624 | 149.52113 | 23584 ft | 248 kts | 43° |
| 2026-04-29 06:31 | -35.82944 | 149.54037 | 23785 ft | 250 kts | 43° |
| 2026-04-29 06:31 | -35.82081 | 149.55023 | 23892 ft | 251 kts | 43° |
| 2026-04-29 06:31 | -35.80800 | 149.56489 | 24046 ft | 252 kts | 43° |
| 2026-04-29 06:32 | -35.79513 | 149.57959 | 24199 ft | 253 kts | 43° |
| 2026-04-29 06:32 | -35.78222 | 149.59436 | 24352 ft | 254 kts | 43° |
| 2026-04-29 06:32 | -35.76927 | 149.60914 | 24507 ft | 254 kts | 43° |
| 2026-04-29 06:32 | -35.75630 | 149.62395 | 24656 ft | 254 kts | 43° |
| 2026-04-29 06:33 | -35.74333 | 149.63875 | 24809 ft | 254 kts | 43° |
| 2026-04-29 06:33 | -35.73034 | 149.65356 | 24959 ft | 255 kts | 43° |
| 2026-04-29 06:33 | -35.71735 | 149.66837 | 25109 ft | 255 kts | 43° |
| 2026-04-29 06:33 | -35.70435 | 149.68318 | 25258 ft | 255 kts | 43° |
| 2026-04-29 06:34 | -35.69133 | 149.69800 | 25410 ft | 255 kts | 43° |
| 2026-04-29 06:34 | -35.67850 | 149.71262 | 25558 ft | 255 kts | 43° |
| 2026-04-29 06:34 | -35.66557 | 149.72733 | 25758 ft | 252 kts | 43° |
| 2026-04-29 06:34 | -35.65272 | 149.74194 | 25957 ft | 251 kts | 43° |
| 2026-04-29 06:35 | -35.63995 | 149.75645 | 26153 ft | 249 kts | 43° |
| 2026-04-29 06:35 | -35.62725 | 149.77088 | 26350 ft | 248 kts | 43° |
| 2026-04-29 06:35 | -35.61463 | 149.78521 | 26548 ft | 247 kts | 43° |
| 2026-04-29 06:35 | -35.60204 | 149.79949 | 26743 ft | 246 kts | 43° |
| 2026-04-29 06:36 | -35.58952 | 149.81371 | 26937 ft | 245 kts | 43° |
| 2026-04-29 06:36 | -35.57689 | 149.82803 | 26993 ft | 250 kts | 43° |
| 2026-04-29 06:36 | -35.56395 | 149.84272 | 26993 ft | 257 kts | 43° |
| 2026-04-29 06:36 | -35.55071 | 149.85772 | 26996 ft | 261 kts | 43° |
| 2026-04-29 06:37 | -35.53723 | 149.87298 | 27002 ft | 265 kts | 43° |
| 2026-04-29 06:37 | -35.52359 | 149.88843 | 27008 ft | 268 kts | 43° |
| 2026-04-29 06:37 | -35.50981 | 149.90403 | 27009 ft | 271 kts | 43° |
| 2026-04-29 06:37 | -35.49592 | 149.91974 | 27010 ft | 273 kts | 43° |
| 2026-04-29 06:38 | -35.48190 | 149.93558 | 27010 ft | 274 kts | 43° |
| 2026-04-29 06:38 | -35.46783 | 149.95148 | 27010 ft | 276 kts | 43° |
| 2026-04-29 06:38 | -35.45370 | 149.96744 | 27007 ft | 277 kts | 43° |
| 2026-04-29 06:38 | -35.43952 | 149.98345 | 27009 ft | 278 kts | 43° |
| 2026-04-29 06:39 | -35.42527 | 149.99952 | 27010 ft | 278 kts | 43° |
| 2026-04-29 06:39 | -35.41101 | 150.01561 | 27010 ft | 279 kts | 43° |
| 2026-04-29 06:39 | -35.39672 | 150.03171 | 27007 ft | 279 kts | 43° |
| 2026-04-29 06:39 | -35.38240 | 150.04783 | 27010 ft | 280 kts | 43° |
| 2026-04-29 06:40 | -35.36808 | 150.06397 | 27010 ft | 280 kts | 43° |
| 2026-04-29 06:40 | -35.35373 | 150.08011 | 27010 ft | 280 kts | 43° |
| 2026-04-29 06:40 | -35.33936 | 150.09626 | 27008 ft | 280 kts | 43° |
| 2026-04-29 06:40 | -35.32500 | 150.11242 | 27009 ft | 280 kts | 43° |
| 2026-04-29 06:41 | -35.31062 | 150.12858 | 27008 ft | 281 kts | 43° |
| 2026-04-29 06:41 | -35.29623 | 150.14473 | 27008 ft | 281 kts | 43° |
| 2026-04-29 06:41 | -35.28185 | 150.16088 | 27010 ft | 281 kts | 43° |
| 2026-04-29 06:41 | -35.26744 | 150.17704 | 27007 ft | 281 kts | 43° |
| 2026-04-29 06:42 | -35.25303 | 150.19320 | 27008 ft | 281 kts | 43° |
| 2026-04-29 06:42 | -35.23862 | 150.20934 | 27009 ft | 281 kts | 43° |
| 2026-04-29 06:42 | -35.22422 | 150.22548 | 27009 ft | 281 kts | 43° |
| 2026-04-29 06:42 | -35.20981 | 150.24162 | 27010 ft | 281 kts | 43° |
| 2026-04-29 06:43 | -35.19538 | 150.25776 | 27007 ft | 281 kts | 42° |
| 2026-04-29 06:43 | -35.18095 | 150.27389 | 27008 ft | 281 kts | 43° |
| 2026-04-29 06:43 | -35.16653 | 150.29003 | 27009 ft | 281 kts | 43° |
| 2026-04-29 06:43 | -35.15210 | 150.30616 | 27009 ft | 281 kts | 42° |
| 2026-04-29 06:44 | -35.13786 | 150.32206 | 27009 ft | 281 kts | 42° |
| 2026-04-29 06:44 | -35.12323 | 150.33838 | 27009 ft | 281 kts | 42° |
| 2026-04-29 06:44 | -35.10901 | 150.35425 | 27009 ft | 281 kts | 42° |
| 2026-04-29 06:44 | -35.09458 | 150.37034 | 27009 ft | 281 kts | 42° |
| 2026-04-29 06:45 | -35.08015 | 150.38643 | 27009 ft | 281 kts | 42° |
| 2026-04-29 06:45 | -35.06572 | 150.40250 | 27009 ft | 281 kts | 42° |
| 2026-04-29 06:45 | -35.05129 | 150.41857 | 27009 ft | 281 kts | 42° |
| 2026-04-29 06:45 | -35.03685 | 150.43464 | 27009 ft | 281 kts | 42° |
| 2026-04-29 06:46 | -35.02242 | 150.45069 | 27009 ft | 281 kts | 42° |
| 2026-04-29 06:46 | -35.00797 | 150.46676 | 27009 ft | 281 kts | 42° |
| 2026-04-29 06:46 | -34.99352 | 150.48281 | 27010 ft | 281 kts | 42° |
| 2026-04-29 06:46 | -34.97909 | 150.49884 | 27009 ft | 281 kts | 42° |
| 2026-04-29 06:47 | -34.96465 | 150.51488 | 27009 ft | 281 kts | 42° |
| 2026-04-29 06:47 | -34.94985 | 150.53037 | 27009 ft | 281 kts | 35° |
| 2026-04-29 06:47 | -34.93297 | 150.54224 | 27008 ft | 280 kts | 27° |
| 2026-04-29 06:47 | -34.91563 | 150.55316 | 27006 ft | 280 kts | 27° |
| 2026-04-29 06:48 | -34.89840 | 150.56433 | 27008 ft | 280 kts | 28° |
| 2026-04-29 06:48 | -34.88127 | 150.57567 | 27009 ft | 280 kts | 28° |
| 2026-04-29 06:48 | -34.86410 | 150.58697 | 27009 ft | 281 kts | 28° |
| 2026-04-29 06:48 | -34.84691 | 150.59823 | 27009 ft | 281 kts | 28° |
| 2026-04-29 06:49 | -34.82970 | 150.60948 | 27009 ft | 281 kts | 28° |
| 2026-04-29 06:49 | -34.81228 | 150.62088 | 27009 ft | 281 kts | 28° |
| 2026-04-29 06:49 | -34.79532 | 150.63199 | 27010 ft | 281 kts | 28° |
| 2026-04-29 06:49 | -34.77811 | 150.64324 | 27010 ft | 281 kts | 28° |
| 2026-04-29 06:50 | -34.76091 | 150.65450 | 27006 ft | 281 kts | 28° |
| 2026-04-29 06:50 | -34.74370 | 150.66573 | 27008 ft | 281 kts | 28° |
| 2026-04-29 06:50 | -34.72647 | 150.67698 | 27008 ft | 281 kts | 28° |
| 2026-04-29 06:50 | -34.70949 | 150.68807 | 27007 ft | 281 kts | 28° |
| 2026-04-29 06:51 | -34.69226 | 150.69931 | 27009 ft | 281 kts | 28° |
| 2026-04-29 06:51 | -34.67503 | 150.71055 | 27008 ft | 281 kts | 28° |
| 2026-04-29 06:51 | -34.65779 | 150.72179 | 27008 ft | 281 kts | 28° |
| 2026-04-29 06:51 | -34.64052 | 150.73304 | 27009 ft | 284 kts | 28° |
| 2026-04-29 06:52 | -34.62288 | 150.74453 | 27009 ft | 292 kts | 28° |
| 2026-04-29 06:52 | -34.60480 | 150.75630 | 27007 ft | 298 kts | 28° |
| 2026-04-29 06:52 | -34.58639 | 150.76829 | 27010 ft | 302 kts | 28° |
| 2026-04-29 06:52 | -34.56776 | 150.78040 | 27009 ft | 306 kts | 28° |
| 2026-04-29 06:53 | -34.54893 | 150.79264 | 27008 ft | 308 kts | 28° |
| 2026-04-29 06:53 | -34.52997 | 150.80496 | 27010 ft | 310 kts | 28° |
| 2026-04-29 06:53 | -34.51089 | 150.81734 | 27007 ft | 312 kts | 28° |
| 2026-04-29 06:53 | -34.49172 | 150.82979 | 27009 ft | 313 kts | 28° |
| 2026-04-29 06:54 | -34.47248 | 150.84226 | 27010 ft | 314 kts | 28° |
| 2026-04-29 06:54 | -34.45320 | 150.85476 | 27006 ft | 315 kts | 28° |
| 2026-04-29 06:54 | -34.43390 | 150.86727 | 27008 ft | 315 kts | 28° |
| 2026-04-29 06:54 | -34.41453 | 150.87981 | 27009 ft | 316 kts | 28° |
| 2026-04-29 06:55 | -34.39516 | 150.89234 | 27009 ft | 316 kts | 28° |
| 2026-04-29 06:55 | -34.37578 | 150.90488 | 27009 ft | 316 kts | 28° |
| 2026-04-29 06:55 | -34.35639 | 150.91741 | 27008 ft | 316 kts | 28° |
| 2026-04-29 06:55 | -34.33698 | 150.92996 | 27010 ft | 316 kts | 28° |
| 2026-04-29 06:56 | -34.31754 | 150.94251 | 27009 ft | 317 kts | 28° |
| 2026-04-29 06:56 | -34.29813 | 150.95505 | 27010 ft | 317 kts | 28° |
| 2026-04-29 06:56 | -34.27869 | 150.96758 | 27009 ft | 317 kts | 28° |
| 2026-04-29 06:56 | -34.25925 | 150.98012 | 27010 ft | 317 kts | 28° |
| 2026-04-29 06:57 | -34.23980 | 150.99265 | 27008 ft | 317 kts | 28° |
| 2026-04-29 06:57 | -34.22034 | 151.00519 | 27009 ft | 317 kts | 28° |
| 2026-04-29 06:57 | -34.20090 | 151.01770 | 27009 ft | 317 kts | 28° |
| 2026-04-29 06:57 | -34.18145 | 151.03022 | 27008 ft | 317 kts | 28° |
| 2026-04-29 06:58 | -34.16198 | 151.04274 | 27007 ft | 317 kts | 28° |
| 2026-04-29 06:58 | -34.14250 | 151.05525 | 27009 ft | 317 kts | 28° |
| 2026-04-29 06:58 | -34.12303 | 151.06776 | 27008 ft | 317 kts | 28° |
| 2026-04-29 06:58 | -34.10357 | 151.08026 | 27008 ft | 317 kts | 28° |
| 2026-04-29 06:59 | -34.08408 | 151.09276 | 27010 ft | 317 kts | 28° |
| 2026-04-29 06:59 | -34.06462 | 151.10526 | 27009 ft | 317 kts | 28° |
| 2026-04-29 06:59 | -34.04515 | 151.11773 | 27009 ft | 317 kts | 28° |
| 2026-04-29 06:59 | -34.02565 | 151.13023 | 27009 ft | 317 kts | 28° |
| 2026-04-29 07:00 | -34.00618 | 151.14269 | 27009 ft | 317 kts | 28° |
| 2026-04-29 07:00 | -33.98671 | 151.15516 | 27009 ft | 317 kts | 28° |
| 2026-04-29 07:00 | -33.96724 | 151.16761 | 27009 ft | 317 kts | 28° |
| 2026-04-29 07:00 | -33.94777 | 151.18007 | 27009 ft | 317 kts | 28° |
| 2026-04-29 07:01 | -33.92892 | 151.19380 | 27007 ft | 317 kts | 33° |
| 2026-04-29 07:01 | -33.91040 | 151.20817 | 27007 ft | 317 kts | 33° |
| 2026-04-29 07:01 | -33.89178 | 151.22248 | 26904 ft | 320 kts | 32° |
| 2026-04-29 07:01 | -33.87280 | 151.23692 | 26575 ft | 327 kts | 32° |
| 2026-04-29 07:02 | -33.85340 | 151.25171 | 26204 ft | 333 kts | 32° |
| 2026-04-29 07:02 | -33.83371 | 151.26676 | 25834 ft | 337 kts | 32° |
| 2026-04-29 07:02 | -33.81395 | 151.28184 | 25464 ft | 337 kts | 32° |
| 2026-04-29 07:02 | -33.79412 | 151.29696 | 25094 ft | 338 kts | 32° |
| 2026-04-29 07:03 | -33.77428 | 151.31208 | 24724 ft | 338 kts | 32° |
| 2026-04-29 07:03 | -33.75440 | 151.32722 | 24353 ft | 338 kts | 32° |
| 2026-04-29 07:03 | -33.73451 | 151.34237 | 23982 ft | 338 kts | 32° |
| 2026-04-29 07:03 | -33.71465 | 151.35747 | 23611 ft | 338 kts | 32° |
| 2026-04-29 07:04 | -33.69509 | 151.37235 | 23245 ft | 335 kts | 32° |
| 2026-04-29 07:04 | -33.67585 | 151.38698 | 22849 ft | 318 kts | 32° |
| 2026-04-29 07:04 | -33.65752 | 151.40085 | 22381 ft | 306 kts | 32° |
| 2026-04-29 07:04 | -33.63981 | 151.41430 | 21902 ft | 297 kts | 32° |
| 2026-04-29 07:05 | -33.62261 | 151.42735 | 21410 ft | 290 kts | 32° |
| 2026-04-29 07:05 | -33.60571 | 151.44019 | 20880 ft | 286 kts | 32° |
| 2026-04-29 07:05 | -33.58901 | 151.45284 | 20351 ft | 282 kts | 32° |
| 2026-04-29 07:05 | -33.57251 | 151.46534 | 19823 ft | 279 kts | 32° |
| 2026-04-29 07:06 | -33.55609 | 151.47778 | 19368 ft | 281 kts | 32° |
| 2026-04-29 07:06 | -33.53954 | 151.49031 | 19013 ft | 282 kts | 32° |
| 2026-04-29 07:06 | -33.52293 | 151.50288 | 18662 ft | 283 kts | 32° |
| 2026-04-29 07:06 | -33.50629 | 151.51547 | 18313 ft | 283 kts | 32° |
| 2026-04-29 07:07 | -33.48961 | 151.52808 | 17963 ft | 283 kts | 32° |
| 2026-04-29 07:07 | -33.47297 | 151.54066 | 17614 ft | 283 kts | 32° |
| 2026-04-29 07:07 | -33.45630 | 151.55325 | 17265 ft | 283 kts | 32° |
| 2026-04-29 07:07 | -33.43969 | 151.56579 | 16916 ft | 282 kts | 32° |
| 2026-04-29 07:08 | -33.42309 | 151.57832 | 16567 ft | 282 kts | 32° |
| 2026-04-29 07:08 | -33.40651 | 151.59082 | 16218 ft | 281 kts | 32° |
| 2026-04-29 07:08 | -33.38997 | 151.60330 | 15869 ft | 281 kts | 32° |
| 2026-04-29 07:08 | -33.37349 | 151.61571 | 15541 ft | 279 kts | 32° |
| 2026-04-29 07:09 | -33.35716 | 151.62802 | 15218 ft | 276 kts | 32° |
| 2026-04-29 07:09 | -33.34095 | 151.64021 | 14893 ft | 274 kts | 32° |
| 2026-04-29 07:09 | -33.32486 | 151.65233 | 14568 ft | 273 kts | 32° |
| 2026-04-29 07:09 | -33.30883 | 151.66438 | 14243 ft | 271 kts | 32° |
| 2026-04-29 07:10 | -33.29290 | 151.67637 | 13918 ft | 270 kts | 32° |
| 2026-04-29 07:10 | -33.27700 | 151.68831 | 13594 ft | 269 kts | 32° |
| 2026-04-29 07:10 | -33.26119 | 151.70020 | 13268 ft | 268 kts | 32° |
| 2026-04-29 07:10 | -33.24544 | 151.71202 | 12943 ft | 267 kts | 32° |
| 2026-04-29 07:11 | -33.22967 | 151.72317 | 12622 ft | 266 kts | 25° |
| 2026-04-29 07:11 | -33.21213 | 151.72949 | 12295 ft | 264 kts | 6° |
| 2026-04-29 07:11 | -33.19390 | 151.72904 | 11967 ft | 262 kts | 351° |
| 2026-04-29 07:11 | -33.17659 | 151.72277 | 11663 ft | 259 kts | 334° |
| 2026-04-29 07:12 | -33.16060 | 151.71300 | 11357 ft | 258 kts | 332° |
| 2026-04-29 07:12 | -33.14461 | 151.70340 | 11063 ft | 256 kts | 333° |
| 2026-04-29 07:12 | -33.12866 | 151.69400 | 10764 ft | 255 kts | 333° |
| 2026-04-29 07:12 | -33.11277 | 151.68459 | 10464 ft | 255 kts | 333° |
| 2026-04-29 07:13 | -33.09695 | 151.67520 | 10164 ft | 254 kts | 333° |
| 2026-04-29 07:13 | -33.08118 | 151.66583 | 9864 ft | 253 kts | 333° |
| 2026-04-29 07:13 | -33.06546 | 151.65652 | 9564 ft | 252 kts | 333° |
| 2026-04-29 07:13 | -33.04976 | 151.64722 | 9260 ft | 251 kts | 333° |
| 2026-04-29 07:14 | -33.03413 | 151.63797 | 8964 ft | 250 kts | 333° |
| 2026-04-29 07:14 | -33.01855 | 151.62873 | 8664 ft | 250 kts | 333° |
| 2026-04-29 07:14 | -33.00302 | 151.61955 | 8364 ft | 249 kts | 333° |
| 2026-04-29 07:14 | -32.98754 | 151.61039 | 8064 ft | 248 kts | 333° |
| 2026-04-29 07:15 | -32.97209 | 151.60126 | 7764 ft | 247 kts | 333° |
| 2026-04-29 07:15 | -32.95669 | 151.59215 | 7464 ft | 247 kts | 333° |
| 2026-04-29 07:15 | -32.94134 | 151.58309 | 7160 ft | 246 kts | 333° |
| 2026-04-29 07:15 | -32.93121 | 151.57710 | 6966 ft | 245 kts | 333° |
| 2026-04-29 07:16 | -32.91078 | 151.56507 | 6565 ft | 244 kts | 334° |
| 2026-04-29 07:16 | -32.90024 | 151.56053 | 6366 ft | 244 kts | 347° |
| 2026-04-29 07:16 | -32.87787 | 151.55643 | 5971 ft | 243 kts | 350° |
| 2026-04-29 07:16 | -32.86689 | 151.55411 | 5772 ft | 242 kts | 349° |
| 2026-04-29 07:17 | -32.85033 | 151.55068 | 5472 ft | 241 kts | 350° |
| 2026-04-29 07:17 | -32.83382 | 151.54745 | 5173 ft | 240 kts | 350° |
| 2026-04-29 07:17 | -32.81738 | 151.54422 | 4873 ft | 239 kts | 350° |
| 2026-04-29 07:17 | -32.80090 | 151.54354 | 4578 ft | 238 kts | 12° |
| 2026-04-29 07:18 | -32.78666 | 151.55265 | 4291 ft | 231 kts | 45° |
| 2026-04-29 07:18 | -32.77724 | 151.56757 | 3993 ft | 222 kts | 55° |
| 2026-04-29 07:18 | -32.76756 | 151.58162 | 3689 ft | 217 kts | 46° |
| 2026-04-29 07:18 | -32.75683 | 151.59399 | 3403 ft | 212 kts | 43° |
| 2026-04-29 07:19 | -32.74645 | 151.60584 | 3246 ft | 203 kts | 44° |
| 2026-04-29 07:19 | -32.73652 | 151.61746 | 3114 ft | 196 kts | 45° |
| 2026-04-29 07:19 | -32.72703 | 151.62863 | 2981 ft | 189 kts | 45° |
| 2026-04-29 07:19 | -32.71872 | 151.63837 | 2859 ft | 184 kts | 45° |
| 2026-04-29 07:20 | -32.70972 | 151.64892 | 2727 ft | 180 kts | 45° |
| 2026-04-29 07:20 | -32.70232 | 151.66051 | 2625 ft | 174 kts | 73° |
| 2026-04-29 07:20 | -32.70105 | 151.67429 | 2620 ft | 164 kts | 91° |
| 2026-04-29 07:20 | -32.70128 | 151.68761 | 2609 ft | 158 kts | 92° |
| 2026-04-29 07:21 | -32.70206 | 151.70029 | 2610 ft | 152 kts | 108° |
| 2026-04-29 07:21 | -32.70761 | 151.71032 | 2607 ft | 140 kts | 129° |
| 2026-04-29 07:21 | -32.71342 | 151.71927 | 2497 ft | 139 kts | 130° |
| 2026-04-29 07:21 | -32.71992 | 151.72865 | 2077 ft | 154 kts | 130° |
| 2026-04-29 07:22 | -32.72703 | 151.73858 | 1665 ft | 160 kts | 132° |
| 2026-04-29 07:22 | -32.73404 | 151.74842 | 1488 ft | 149 kts | 131° |
| 2026-04-29 07:22 | -32.74035 | 151.75724 | 1486 ft | 134 kts | 132° |
| 2026-04-29 07:22 | -32.74621 | 151.76564 | 1385 ft | 130 kts | 129° |
| 2026-04-29 07:23 | -32.75149 | 151.77356 | 1360 ft | 118 kts | 130° |
| 2026-04-29 07:23 | -32.75671 | 151.78095 | 1258 ft | 116 kts | 132° |
| 2026-04-29 07:23 | -32.76201 | 151.78819 | 1116 ft | 117 kts | 133° |
| 2026-04-29 07:23 | -32.76747 | 151.79543 | 958 ft | 118 kts | 133° |
| 2026-04-29 07:24 | -32.77286 | 151.80286 | 789 ft | 119 kts | 130° |
| 2026-04-29 07:24 | -32.77817 | 151.81033 | 578 ft | 117 kts | 131° |
| 2026-04-29 07:24 | -32.78340 | 151.81751 | 363 ft | 112 kts | 132° |
| 2026-04-29 07:24 | -32.78841 | 151.82445 | 162 ft | 108 kts | 132° |
| 2026-04-29 07:25 | -32.79316 | 151.83103 | 38 ft | 99 kts | 132° |
| 2026-04-29 07:25 | -32.79682 | 151.83610 | 25 ft | 64 kts | 130° |
| 2026-04-29 07:25 | -32.79851 | 151.83838 | 26 ft | 17 kts | 148° |
| 2026-04-29 07:25 | -32.79932 | 151.83854 | 27 ft | 10 kts | 188° |
| 2026-04-29 07:26 | -32.80005 | 151.83840 | 26 ft | 11 kts | 189° |
| 2026-04-29 07:26 | -32.80081 | 151.83825 | 27 ft | 11 kts | 190° |
| 2026-04-29 07:26 | -32.80155 | 151.83828 | 25 ft | 11 kts | 162° |
| 2026-04-29 07:26 | -32.80214 | 151.83889 | 23 ft | 12 kts | 130° |
| 2026-04-29 07:27 | -32.80269 | 151.83966 | 22 ft | 12 kts | 130° |
| 2026-04-29 07:27 | -32.80312 | 151.84025 | 22 ft | 6 kts | 134° |
| 2026-04-29 07:27 | -32.80336 | 151.84028 | 21 ft | 3 kts | 240° |
| 2026-04-29 07:27 | -32.80342 | 151.84003 | 21 ft | 3 kts | 254° |
| 2026-04-29 07:28 | -32.80345 | 151.83991 | 22 ft | 0 kts | 254° |
| 2026-04-29 07:28 | -32.80345 | 151.83990 | 22 ft | 0 kts | 254° |
| 2026-04-29 07:28 | -32.80346 | 151.83986 | 23 ft | 1 kts | 253° |
| 2026-04-29 07:28 | -32.80346 | 151.83984 | 23 ft | 0 kts | 253° |